createdAt,value
2023-09-02T00:01:35.237Z,86.69
2023-09-02T00:04:22.618Z,86.78
2023-09-02T00:07:10.540Z,86.76
2023-09-02T00:09:57.702Z,86.41
2023-09-02T00:12:45.097Z,86.35
2023-09-02T00:15:33.188Z,86.61
2023-09-02T00:18:21.130Z,87.22
2023-09-02T00:21:10.119Z,87.61
2023-09-02T00:24:04.176Z,87.76
2023-09-02T00:26:51.668Z,87.53
2023-09-02T00:29:43.265Z,87.93
2023-09-02T00:32:30.577Z,87.57
2023-09-02T00:35:19.491Z,87.44
2023-09-02T00:38:06.623Z,87.80
2023-09-02T00:41:01.085Z,87.61
2023-09-02T00:44:00.426Z,87.94
2023-09-02T00:53:34.308Z,88.67
2023-09-02T00:59:25.106Z,88.35
2023-09-02T01:02:11.175Z,88.27
2023-09-02T01:04:59.164Z,87.97
2023-09-02T01:07:45.230Z,88.39
2023-09-02T01:10:32.927Z,88.83
2023-09-02T01:13:18.827Z,88.61
2023-09-02T01:16:04.468Z,88.33
2023-09-02T01:18:49.778Z,88.18
2023-09-02T01:21:49.833Z,88.30
2023-09-02T01:24:53.633Z,88.30
2023-09-02T01:28:08.565Z,88.79
2023-09-02T01:30:55.372Z,88.66
2023-09-02T01:33:42.287Z,88.74
2023-09-02T01:36:29.322Z,88.67
2023-09-02T01:39:16.736Z,88.84
2023-09-02T01:42:02.518Z,89.31
2023-09-02T01:44:48.316Z,89.09
2023-09-02T01:47:33.922Z,89.18
2023-09-02T01:50:22.762Z,89.18
2023-09-02T01:53:09.991Z,89.02
2023-09-02T01:55:56.249Z,89.30
2023-09-02T01:58:41.328Z,89.23
2023-09-02T02:01:27.062Z,89.27
2023-09-02T02:04:24.441Z,89.53
2023-09-02T02:07:15.062Z,89.33
2023-09-02T02:10:04.443Z,89.35
2023-09-02T02:12:50.144Z,89.59
2023-09-02T02:15:35.627Z,90.25
2023-09-02T02:18:20.845Z,90.02
2023-09-02T02:21:06.766Z,89.95
2023-09-02T02:23:52.390Z,90.04
2023-09-02T02:26:37.764Z,89.99
2023-09-02T02:29:23.313Z,91.22
2023-09-02T02:32:08.660Z,91.16
2023-09-02T02:34:55.288Z,91.44
2023-09-02T02:37:40.320Z,91.00
2023-09-02T02:40:25.598Z,90.85
2023-09-02T02:43:11.101Z,90.55
2023-09-02T02:45:56.752Z,90.74
2023-09-02T02:48:41.851Z,91.13
2023-09-02T02:51:27.172Z,91.24
2023-09-02T02:54:12.772Z,91.39
2023-09-02T02:56:58.142Z,91.90
2023-09-02T02:59:43.665Z,92.21
2023-09-02T03:02:29.233Z,91.86
2023-09-02T03:05:14.466Z,91.76
2023-09-02T03:07:59.831Z,91.55
2023-09-02T03:10:45.288Z,91.29
2023-09-02T03:13:32.017Z,91.62
2023-09-02T03:16:17.238Z,91.37
2023-09-02T03:19:02.623Z,91.58
2023-09-02T03:21:49.046Z,91.90
2023-09-02T03:24:34.457Z,91.98
2023-09-02T03:27:19.974Z,91.86
2023-09-02T03:30:06.544Z,91.38
2023-09-02T03:32:51.616Z,91.14
2023-09-02T03:35:39.990Z,91.32
2023-09-02T03:38:25.005Z,91.28
2023-09-02T03:41:13.968Z,90.57
2023-09-02T03:44:00.294Z,90.84
2023-09-02T03:46:45.589Z,90.95
2023-09-02T03:49:30.863Z,90.95
2023-09-02T03:52:17.207Z,90.50
2023-09-02T03:55:02.671Z,90.16
2023-09-02T03:57:47.821Z,89.98
2023-09-02T04:00:33.482Z,90.65
2023-09-02T04:03:21.579Z,90.54
2023-09-02T04:06:06.877Z,90.29
2023-09-02T04:08:52.749Z,90.20
2023-09-02T04:11:38.093Z,90.19
2023-09-02T04:14:23.402Z,90.37
2023-09-02T04:17:08.974Z,90.18
2023-09-02T04:19:56.199Z,89.57
2023-09-02T04:22:41.221Z,89.50
2023-09-02T04:25:26.481Z,89.68
2023-09-02T04:28:11.919Z,89.75
2023-09-02T04:30:58.272Z,89.41
2023-09-02T04:33:43.604Z,89.10
2023-09-02T04:36:30.299Z,89.46
2023-09-02T04:39:15.734Z,89.40
2023-09-02T04:42:01.169Z,89.25
2023-09-02T04:44:46.559Z,89.49
2023-09-02T04:47:32.246Z,89.74
2023-09-02T04:50:17.360Z,89.64
2023-09-02T04:53:03.546Z,89.26
2023-09-02T04:55:49.495Z,89.91
2023-09-02T04:58:34.668Z,90.39
2023-09-02T05:01:20.120Z,90.24
2023-09-02T05:04:05.556Z,90.35
2023-09-02T05:06:50.985Z,90.94
2023-09-02T05:09:36.462Z,91.29
2023-09-02T05:12:21.977Z,91.23
2023-09-02T05:15:08.064Z,91.31
2023-09-02T05:17:53.709Z,91.65
2023-09-02T05:20:41.463Z,92.67
2023-09-02T05:23:27.194Z,92.88
2023-09-02T05:26:12.899Z,93.61
2023-09-02T05:28:57.868Z,93.89
2023-09-02T05:31:43.342Z,94.24
2023-09-02T05:34:28.532Z,94.66
2023-09-02T05:37:13.810Z,94.82
2023-09-02T05:39:59.330Z,95.26
2023-09-02T05:42:44.652Z,95.12
2023-09-02T05:45:29.998Z,96.33
2023-09-02T05:48:15.505Z,96.76
2023-09-02T05:51:00.779Z,96.36
2023-09-02T05:53:47.712Z,96.49
2023-09-02T05:56:34.931Z,97.69
2023-09-02T05:59:20.294Z,97.66
2023-09-02T06:02:05.466Z,97.27
2023-09-02T06:04:50.717Z,99.41
2023-09-02T06:07:35.757Z,99.19
2023-09-02T06:10:21.193Z,98.96
2023-09-02T06:13:06.321Z,98.28
2023-09-02T06:15:51.864Z,97.95
2023-09-02T06:18:37.373Z,97.81
2023-09-02T06:21:22.620Z,97.67
2023-09-02T06:24:08.522Z,98.39
2023-09-02T06:26:53.795Z,99.50
2023-09-02T06:29:38.933Z,99.67
2023-09-02T06:32:25.666Z,99.66
2023-09-02T06:35:16.159Z,100.00
2023-09-02T06:38:01.783Z,100.00
2023-09-02T06:40:47.437Z,100.00
2023-09-02T06:43:32.832Z,100.00
2023-09-02T06:46:20.871Z,100.00
2023-09-02T06:49:06.756Z,100.00
2023-09-02T06:51:52.099Z,100.00
2023-09-02T06:54:37.456Z,100.00
2023-09-02T06:57:22.658Z,100.00
2023-09-02T07:00:08.673Z,100.00
2023-09-02T07:02:54.006Z,100.00
2023-09-02T07:05:39.405Z,100.00
2023-09-02T07:08:24.672Z,100.00
2023-09-02T07:11:11.082Z,100.00
2023-09-02T07:13:58.203Z,100.00
2023-09-02T07:16:43.546Z,100.00
2023-09-02T07:19:29.114Z,100.00
2023-09-02T07:22:14.421Z,100.00
2023-09-02T07:24:59.923Z,100.00
2023-09-02T07:27:45.294Z,100.00
2023-09-02T07:30:30.758Z,100.00
2023-09-02T07:33:16.843Z,100.00
2023-09-02T07:36:13.527Z,100.00
2023-09-02T07:38:58.965Z,100.00
2023-09-02T07:41:44.366Z,99.37
2023-09-02T07:44:29.737Z,98.59
2023-09-02T07:47:15.022Z,98.10
2023-09-02T07:50:00.382Z,97.63
2023-09-02T07:52:45.778Z,97.53
2023-09-02T07:55:31.069Z,97.27
2023-09-02T07:58:16.413Z,97.50
2023-09-02T08:01:01.891Z,97.14
2023-09-02T08:03:47.110Z,96.66
2023-09-02T08:06:32.492Z,97.67
2023-09-02T08:09:20.508Z,98.03
2023-09-02T08:12:06.369Z,97.24
2023-09-02T08:14:51.384Z,96.10
2023-09-02T08:17:38.583Z,95.27
2023-09-02T08:20:24.386Z,94.48
2023-09-02T08:23:09.443Z,93.23
2023-09-02T08:25:54.768Z,92.59
2023-09-02T08:28:40.866Z,90.91
2023-09-02T08:31:25.976Z,89.90
2023-09-02T08:34:11.411Z,90.11
2023-09-02T08:36:56.744Z,90.23
2023-09-02T08:39:42.137Z,89.30
2023-09-02T08:42:27.870Z,88.21
2023-09-02T08:45:14.718Z,87.33
2023-09-02T08:48:06.444Z,86.11
2023-09-02T08:50:53.623Z,86.91
2023-09-02T08:53:39.978Z,86.50
2023-09-02T08:56:25.403Z,85.81
2023-09-02T08:59:11.394Z,84.76
2023-09-02T09:01:57.812Z,84.91
2023-09-02T09:04:43.437Z,84.02
2023-09-02T09:07:28.990Z,83.35
2023-09-02T09:10:17.158Z,81.77
2023-09-02T09:13:05.619Z,81.28
2023-09-02T09:15:52.425Z,82.09
2023-09-02T09:18:37.680Z,80.56
2023-09-02T09:21:22.974Z,80.81
2023-09-02T09:24:12.616Z,81.12
2023-09-02T09:27:00.542Z,80.05
2023-09-02T09:29:46.785Z,77.90
2023-09-02T09:32:33.068Z,76.49
2023-09-02T09:35:24.570Z,78.49
2023-09-02T09:38:09.993Z,78.85
2023-09-02T09:40:55.460Z,76.84
2023-09-02T09:43:41.152Z,76.47
2023-09-02T09:46:26.481Z,75.59
2023-09-02T09:49:31.683Z,76.28
2023-09-02T09:52:18.303Z,76.40
2023-09-02T09:55:03.862Z,75.45
2023-09-02T09:57:54.531Z,76.52
2023-09-02T10:00:40.139Z,74.70
2023-09-02T10:03:32.206Z,73.37
2023-09-02T10:06:17.955Z,72.26
2023-09-02T10:09:03.134Z,74.00
2023-09-02T10:11:48.559Z,72.92
2023-09-02T10:14:34.086Z,74.08
2023-09-02T10:17:19.718Z,74.07
2023-09-02T10:20:06.875Z,73.48
2023-09-02T10:22:53.245Z,74.46
2023-09-02T10:25:56.760Z,72.76
2023-09-02T10:28:43.504Z,72.31
2023-09-02T10:31:35.938Z,70.65
2023-09-02T10:34:50.884Z,69.38
2023-09-02T10:37:45.358Z,70.48
2023-09-02T10:40:40.307Z,70.15
2023-09-02T10:43:26.011Z,70.38
2023-09-02T10:46:12.591Z,70.05
2023-09-02T10:49:00.042Z,68.13
2023-09-02T10:51:45.691Z,69.16
2023-09-02T10:55:09.798Z,68.72
2023-09-02T10:57:57.310Z,70.64
2023-09-02T11:00:48.105Z,69.58
2023-09-02T11:03:50.582Z,67.44
2023-09-02T11:06:36.219Z,65.83
2023-09-02T11:09:49.854Z,67.29
2023-09-02T11:12:35.960Z,68.39
2023-09-02T11:15:21.736Z,68.17
2023-09-02T11:18:30.432Z,67.49
2023-09-02T11:21:44.876Z,68.67
2023-09-02T11:24:31.393Z,69.24
2023-09-02T11:27:16.740Z,70.79
2023-09-02T11:30:12.312Z,66.14
2023-09-02T11:32:58.588Z,65.09
2023-09-02T11:35:44.433Z,65.30
2023-09-02T11:38:29.695Z,65.23
2023-09-02T11:41:26.223Z,64.24
2023-09-02T11:44:13.349Z,66.60
2023-09-02T11:46:59.130Z,69.24
2023-09-02T11:49:45.420Z,70.72
2023-09-02T11:52:30.541Z,71.87
2023-09-02T11:55:17.388Z,73.73
2023-09-02T11:58:11.645Z,74.52
2023-09-02T12:00:56.884Z,75.72
2023-09-02T12:03:42.363Z,75.93
2023-09-02T12:06:31.348Z,75.91
2023-09-02T12:09:17.864Z,75.94
2023-09-02T12:12:04.056Z,76.28
2023-09-02T12:14:49.303Z,76.27
2023-09-02T12:17:34.871Z,75.84
2023-09-02T12:20:20.336Z,75.23
2023-09-02T12:23:06.634Z,75.38
2023-09-02T12:26:11.029Z,75.32
2023-09-02T12:29:03.470Z,75.51
2023-09-02T12:31:55.997Z,75.77
2023-09-02T12:34:41.494Z,76.78
2023-09-02T12:37:26.682Z,76.94
2023-09-02T12:40:16.196Z,76.37
2023-09-02T12:43:02.785Z,76.00
2023-09-02T12:45:48.216Z,74.50
2023-09-02T12:48:34.038Z,74.93
2023-09-02T12:51:28.780Z,75.74
2023-09-02T12:54:15.461Z,76.55
2023-09-02T12:57:00.858Z,77.26
2023-09-02T12:59:46.239Z,77.82
2023-09-02T13:02:32.791Z,77.26
2023-09-02T13:05:18.201Z,76.32
2023-09-02T13:08:03.833Z,76.38
2023-09-02T13:10:49.025Z,77.34
2023-09-02T13:13:34.427Z,75.75
2023-09-02T13:16:20.245Z,75.47
2023-09-02T13:19:05.858Z,75.34
2023-09-02T13:21:51.804Z,75.53
2023-09-02T13:24:47.999Z,75.55
2023-09-02T13:27:34.169Z,75.71
2023-09-02T13:30:24.165Z,76.00
2023-09-02T13:33:09.645Z,75.43
2023-09-02T13:35:58.158Z,76.71
2023-09-02T13:38:43.632Z,78.08
2023-09-02T13:41:29.381Z,75.90
2023-09-02T13:44:14.588Z,75.03
2023-09-02T13:47:07.959Z,75.26
2023-09-02T13:49:57.460Z,74.52
2023-09-02T13:52:44.913Z,75.05
2023-09-02T13:55:49.306Z,75.02
2023-09-02T13:58:36.422Z,74.25
2023-09-02T14:01:21.900Z,75.18
2023-09-02T14:04:07.485Z,75.02
2023-09-02T14:06:52.755Z,75.28
2023-09-02T14:09:43.994Z,76.26
2023-09-02T14:12:30.647Z,76.98
2023-09-02T14:15:16.597Z,77.20
2023-09-02T14:18:01.716Z,77.34
2023-09-02T14:20:47.063Z,76.77
2023-09-02T14:23:35.256Z,76.52
2023-09-02T14:26:20.495Z,77.10
2023-09-02T14:29:06.049Z,77.41
2023-09-02T14:31:51.369Z,78.03
2023-09-02T14:34:37.951Z,79.05
2023-09-02T14:37:23.365Z,78.70
2023-09-02T14:40:09.062Z,78.38
2023-09-02T14:42:54.211Z,78.26
2023-09-02T14:45:39.645Z,78.32
2023-09-02T14:48:26.158Z,78.50
2023-09-02T14:51:12.090Z,78.88
2023-09-02T14:53:57.471Z,77.92
2023-09-02T14:56:45.221Z,77.79
2023-09-02T14:59:31.001Z,77.43
2023-09-02T15:02:41.529Z,76.95
2023-09-02T15:05:28.383Z,76.65
2023-09-02T15:08:14.205Z,76.61
2023-09-02T15:11:01.474Z,76.60
2023-09-02T15:13:46.741Z,76.51
2023-09-02T15:16:36.285Z,76.12
2023-09-02T15:19:23.044Z,76.55
2023-09-02T15:22:08.118Z,75.69
2023-09-02T15:24:53.695Z,75.73
2023-09-02T15:27:39.811Z,75.11
2023-09-02T15:30:29.974Z,75.53
2023-09-02T15:33:15.483Z,75.33
2023-09-02T15:36:05.127Z,75.11
2023-09-02T15:38:50.630Z,74.94
2023-09-02T15:41:38.026Z,75.22
2023-09-02T15:44:23.464Z,74.92
2023-09-02T15:47:11.600Z,75.35
2023-09-02T15:49:56.914Z,76.16
2023-09-02T15:52:42.436Z,76.14
2023-09-02T15:55:27.740Z,76.22
2023-09-02T15:58:13.137Z,75.97
2023-09-02T16:00:58.631Z,76.10
2023-09-02T16:03:44.216Z,76.35
2023-09-02T16:06:29.751Z,76.33
2023-09-02T16:09:15.111Z,75.91
2023-09-02T16:12:00.598Z,76.16
2023-09-02T16:14:45.905Z,76.12
2023-09-02T16:17:31.770Z,75.71
2023-09-02T16:20:16.884Z,76.49
2023-09-02T16:23:02.260Z,77.18
2023-09-02T16:25:47.596Z,77.53
2023-09-02T16:28:32.944Z,76.70
2023-09-02T16:31:18.399Z,76.80
2023-09-02T16:34:05.090Z,76.90
2023-09-02T16:36:51.907Z,76.59
2023-09-02T16:39:37.370Z,75.89
2023-09-02T16:42:33.978Z,75.83
2023-09-02T16:45:19.878Z,75.25
2023-09-02T16:48:10.155Z,75.65
2023-09-02T16:50:55.656Z,76.04
2023-09-02T16:53:41.566Z,76.52
2023-09-02T16:56:26.946Z,76.55
2023-09-02T16:59:13.038Z,77.16
2023-09-02T17:01:59.731Z,77.61
2023-09-02T17:04:45.242Z,77.99
2023-09-02T17:07:30.594Z,78.52
2023-09-02T17:10:29.811Z,78.80
2023-09-02T17:13:15.552Z,78.70
2023-09-02T17:16:00.982Z,78.72
2023-09-02T17:18:47.154Z,79.08
2023-09-02T17:21:33.000Z,79.12
2023-09-02T17:24:18.623Z,78.96
2023-09-02T17:27:16.315Z,78.80
2023-09-02T17:30:06.914Z,78.90
2023-09-02T17:32:52.866Z,79.11
2023-09-02T17:35:38.257Z,79.10
2023-09-02T17:38:23.508Z,78.71
2023-09-02T17:41:09.042Z,78.67
2023-09-02T17:43:54.185Z,78.76
2023-09-02T17:46:39.311Z,78.77
2023-09-02T17:49:24.357Z,79.16
2023-09-02T17:52:09.676Z,79.09
2023-09-02T17:54:54.813Z,78.72
2023-09-02T17:57:40.289Z,78.51
2023-09-02T18:00:27.087Z,79.14
2023-09-02T18:03:12.527Z,78.99
2023-09-02T18:05:58.098Z,78.89
2023-09-02T18:11:33.342Z,79.26
2023-09-02T18:14:18.819Z,79.08
2023-09-02T18:17:04.290Z,79.18
2023-09-02T18:19:50.334Z,79.42
2023-09-02T18:22:35.567Z,79.65
2023-09-02T18:25:21.069Z,79.57
2023-09-02T18:28:06.654Z,79.40
2023-09-02T18:30:53.604Z,79.68
2023-09-02T18:33:40.779Z,79.56
2023-09-02T18:36:26.416Z,79.72
2023-09-02T18:39:11.854Z,80.15
2023-09-02T18:41:56.873Z,80.59
2023-09-02T18:44:43.194Z,80.72
2023-09-02T18:47:28.538Z,80.27
2023-09-02T18:50:13.842Z,80.49
2023-09-02T18:52:59.204Z,80.53
2023-09-02T18:55:44.498Z,80.55
2023-09-02T18:58:29.666Z,80.44
2023-09-02T19:01:15.653Z,80.34
2023-09-02T19:04:01.952Z,80.26
2023-09-02T19:06:47.320Z,80.21
2023-09-02T19:09:32.979Z,80.37
2023-09-02T19:12:18.073Z,80.67
2023-09-02T19:15:03.811Z,80.67
2023-09-02T19:17:48.925Z,81.39
2023-09-02T19:20:34.376Z,81.84
2023-09-02T19:23:20.218Z,82.28
2023-09-02T19:26:05.803Z,82.03
2023-09-02T19:28:51.129Z,82.03
2023-09-02T19:31:36.618Z,82.40
2023-09-02T19:34:24.020Z,82.35
2023-09-02T19:37:09.388Z,82.31
2023-09-02T19:39:55.066Z,82.85
2023-09-02T19:42:41.380Z,82.76
2023-09-02T19:45:26.689Z,82.75
2023-09-02T19:48:12.182Z,83.14
2023-09-02T19:50:57.593Z,83.48
2023-09-02T19:53:42.978Z,83.41
2023-09-02T19:56:28.255Z,83.20
2023-09-02T19:59:13.944Z,83.07
2023-09-02T20:02:00.952Z,83.06
2023-09-02T20:04:47.036Z,82.94
2023-09-02T20:07:32.528Z,83.25
2023-09-02T20:10:17.984Z,83.09
2023-09-02T20:13:03.643Z,83.20
2023-09-02T20:15:56.594Z,83.14
2023-09-02T20:18:43.123Z,83.43
2023-09-02T20:21:29.539Z,83.30
2023-09-02T20:24:14.688Z,83.32
2023-09-02T20:27:00.692Z,83.39
2023-09-02T20:29:46.123Z,83.72
2023-09-02T20:32:31.853Z,83.94
2023-09-02T20:35:16.912Z,84.06
2023-09-02T20:38:05.099Z,84.25
2023-09-02T20:40:51.677Z,84.00
2023-09-02T20:43:36.976Z,84.14
2023-09-02T20:46:22.387Z,84.31
2023-09-02T20:49:07.973Z,84.41
2023-09-02T20:51:53.664Z,84.78
2023-09-02T20:54:38.859Z,85.24
2023-09-02T20:57:24.453Z,85.27
2023-09-02T21:00:10.068Z,85.20
2023-09-02T21:02:58.671Z,85.26
2023-09-02T21:05:44.400Z,85.38
2023-09-02T21:08:31.540Z,85.93
2023-09-02T21:11:17.780Z,85.94
2023-09-02T21:14:03.118Z,85.62
2023-09-02T21:16:48.425Z,85.76
2023-09-02T21:19:37.727Z,86.14
2023-09-02T21:22:23.184Z,85.81
2023-09-02T21:25:11.302Z,85.54
2023-09-02T21:27:56.660Z,85.08
2023-09-02T21:30:42.223Z,85.05
2023-09-02T21:33:27.415Z,85.20
2023-09-02T21:36:17.513Z,84.87
2023-09-02T21:39:02.730Z,85.03
2023-09-02T21:41:48.110Z,84.72
2023-09-02T21:44:33.764Z,84.56
2023-09-02T21:47:19.092Z,84.55
2023-09-02T21:50:04.349Z,84.46
2023-09-02T21:52:49.926Z,84.30
2023-09-02T21:55:35.199Z,84.42
2023-09-02T21:58:21.077Z,84.45
2023-09-02T22:01:09.407Z,84.13
2023-09-02T22:03:54.989Z,84.14
2023-09-02T22:06:40.349Z,84.30
2023-09-02T22:09:25.843Z,84.41
2023-09-02T22:12:11.289Z,84.47
2023-09-02T22:14:56.788Z,84.92
2023-09-02T22:17:42.110Z,85.00
2023-09-02T22:20:27.602Z,85.19
2023-09-02T22:23:15.529Z,85.37
2023-09-02T22:26:04.066Z,85.99
2023-09-02T22:28:49.530Z,86.08
2023-09-02T22:31:34.816Z,85.83
2023-09-02T22:34:20.098Z,86.05
2023-09-02T22:37:05.646Z,85.90
2023-09-02T22:39:51.472Z,85.82
2023-09-02T22:42:37.011Z,86.07
2023-09-02T22:45:23.273Z,85.85
2023-09-02T22:48:09.283Z,86.16
2023-09-02T22:50:54.804Z,86.13
2023-09-02T22:53:41.254Z,86.28
2023-09-02T22:56:26.613Z,86.63
2023-09-02T22:59:12.013Z,86.83
2023-09-02T23:01:57.504Z,86.98
2023-09-02T23:04:42.741Z,87.11
2023-09-02T23:07:27.997Z,87.16
2023-09-02T23:10:13.648Z,87.56
2023-09-02T23:12:58.984Z,87.79
2023-09-02T23:15:44.279Z,87.52
2023-09-02T23:18:29.851Z,87.82
2023-09-02T23:21:19.316Z,87.97
2023-09-02T23:24:04.631Z,87.93
2023-09-02T23:26:49.940Z,87.79
2023-09-02T23:29:35.582Z,87.97
2023-09-02T23:32:25.921Z,87.91
2023-09-02T23:35:11.312Z,87.77
2023-09-02T23:37:56.223Z,87.62
2023-09-02T23:40:41.518Z,87.47
2023-09-02T23:43:26.938Z,87.25
2023-09-02T23:46:20.188Z,87.33
2023-09-02T23:49:05.405Z,87.54
2023-09-02T23:51:50.952Z,87.28
2023-09-02T23:54:37.204Z,87.34
2023-09-02T23:57:22.671Z,87.28
